Terminal Aerodrome Forecast
Issued by NWS

Home | Current Version | Previous Version | Graphics & Text | Print | Product List | Glossary Off
Versions: 1 2 3 4 5 6 7 8 9 10 11 12 13 14 15

422
FTUS43 KUNR 280811 AAA
TAFGCC
TAF AMD
KGCC 280811Z 2808/0106 32008KT P6SM SCT100
      TEMPO 2809/2812 5SM -SHSN BKN015
     FM281200 30008KT P6SM SCT022
     FM281800 28010KT P6SM VCSH SCT025=

USA.gov is the U.S. government's official web portal to all federal, state and local government web resources and services.